sensor_id;sensor_type;location;lat;lon;timestamp;P1;P2;P0
51052;PMS5003;37093;37.716;-122.060;2022-11-23T00:01:10;33;22;
51052;PMS5003;37093;37.716;-122.060;2022-11-23T00:03:40;30;22;
51052;PMS5003;37093;37.716;-122.060;2022-11-23T00:06:08;25;22;
51052;PMS5003;37093;37.716;-122.060;2022-11-23T00:08:37;23;21;
51052;PMS5003;37093;37.716;-122.060;2022-11-23T00:11:06;24;21;
51052;PMS5003;37093;37.716;-122.060;2022-11-23T00:13:36;28;21;
51052;PMS5003;37093;37.716;-122.060;2022-11-23T00:16:05;24;20;
51052;PMS5003;37093;37.716;-122.060;2022-11-23T00:18:34;27;22;
51052;PMS5003;37093;37.716;-122.060;2022-11-23T00:21:05;24;23;
51052;PMS5003;37093;37.716;-122.060;2022-11-23T00:23:34;42;27;
51052;PMS5003;37093;37.716;-122.060;2022-11-23T00:26:03;26;19;
51052;PMS5003;37093;37.716;-122.060;2022-11-23T00:28:32;21;20;
51052;PMS5003;37093;37.716;-122.060;2022-11-23T00:31:00;26;21;
51052;PMS5003;37093;37.716;-122.060;2022-11-23T00:33:28;22;20;
51052;PMS5003;37093;37.716;-122.060;2022-11-23T00:35:59;33;22;
51052;PMS5003;37093;37.716;-122.060;2022-11-23T00:38:29;23;19;
51052;PMS5003;37093;37.716;-122.060;2022-11-23T00:40:58;29;27;
51052;PMS5003;37093;37.716;-122.060;2022-11-23T00:43:27;40;24;
51052;PMS5003;37093;37.716;-122.060;2022-11-23T00:46:01;25;24;
51052;PMS5003;37093;37.716;-122.060;2022-11-23T00:48:32;30;24;
51052;PMS5003;37093;37.716;-122.060;2022-11-23T00:51:01;48;33;
51052;PMS5003;37093;37.716;-122.060;2022-11-23T00:53:31;51;39;
51052;PMS5003;37093;37.716;-122.060;2022-11-23T00:56:00;43;37;
51052;PMS5003;37093;37.716;-122.060;2022-11-23T00:58:29;43;26;
51052;PMS5003;37093;37.716;-122.060;2022-11-23T01:01:02;29;26;
51052;PMS5003;37093;37.716;-122.060;2022-11-23T01:03:32;31;23;
51052;PMS5003;37093;37.716;-122.060;2022-11-23T01:06:02;39;25;
51052;PMS5003;37093;37.716;-122.060;2022-11-23T01:08:32;24;22;
51052;PMS5003;37093;37.716;-122.060;2022-11-23T01:11:02;24;20;
51052;PMS5003;37093;37.716;-122.060;2022-11-23T01:13:32;30;19;
51052;PMS5003;37093;37.716;-122.060;2022-11-23T01:16:01;26;18;
51052;PMS5003;37093;37.716;-122.060;2022-11-23T01:18:29;25;20;
51052;PMS5003;37093;37.716;-122.060;2022-11-23T01:20:59;20;17;
51052;PMS5003;37093;37.716;-122.060;2022-11-23T01:23:27;23;16;
51052;PMS5003;37093;37.716;-122.060;2022-11-23T01:25:56;19;17;
51052;PMS5003;37093;37.716;-122.060;2022-11-23T01:28:29;20;14;
51052;PMS5003;37093;37.716;-122.060;2022-11-23T01:31:02;20;13;
51052;PMS5003;37093;37.716;-122.060;2022-11-23T01:33:31;21;15;
51052;PMS5003;37093;37.716;-122.060;2022-11-23T01:36:00;19;17;
51052;PMS5003;37093;37.716;-122.060;2022-11-23T01:38:34;28;17;
51052;PMS5003;37093;37.716;-122.060;2022-11-23T01:41:03;17;14;
51052;PMS5003;37093;37.716;-122.060;2022-11-23T01:43:31;20;15;
51052;PMS5003;37093;37.716;-122.060;2022-11-23T01:46:00;24;15;
51052;PMS5003;37093;37.716;-122.060;2022-11-23T01:48:29;21;16;
51052;PMS5003;37093;37.716;-122.060;2022-11-23T01:51:02;21;17;
51052;PMS5003;37093;37.716;-122.060;2022-11-23T01:53:32;17;14;
51052;PMS5003;37093;37.716;-122.060;2022-11-23T01:56:02;19;15;
51052;PMS5003;37093;37.716;-122.060;2022-11-23T01:58:36;24;17;
51052;PMS5003;37093;37.716;-122.060;2022-11-23T02:01:07;18;16;
51052;PMS5003;37093;37.716;-122.060;2022-11-23T02:03:36;20;15;
51052;PMS5003;37093;37.716;-122.060;2022-11-23T02:06:07;17;15;
51052;PMS5003;37093;37.716;-122.060;2022-11-23T02:08:39;21;18;
51052;PMS5003;37093;37.716;-122.060;2022-11-23T02:11:08;20;17;
51052;PMS5003;37093;37.716;-122.060;2022-11-23T02:13:38;20;15;
51052;PMS5003;37093;37.716;-122.060;2022-11-23T02:16:07;20;16;
51052;PMS5003;37093;37.716;-122.060;2022-11-23T02:18:36;31;17;
51052;PMS5003;37093;37.716;-122.060;2022-11-23T02:21:07;21;20;
51052;PMS5003;37093;37.716;-122.060;2022-11-23T02:23:38;30;17;
51052;PMS5003;37093;37.716;-122.060;2022-11-23T02:26:13;18;18;
51052;PMS5003;37093;37.716;-122.060;2022-11-23T02:28:44;18;17;
51052;PMS5003;37093;37.716;-122.060;2022-11-23T02:31:16;20;17;
51052;PMS5003;37093;37.716;-122.060;2022-11-23T02:33:45;23;19;
51052;PMS5003;37093;37.716;-122.060;2022-11-23T02:36:25;19;16;
51052;PMS5003;37093;37.716;-122.060;2022-11-23T02:39:04;29;20;
51052;PMS5003;37093;37.716;-122.060;2022-11-23T02:41:37;28;16;
51052;PMS5003;37093;37.716;-122.060;2022-11-23T02:44:08;19;16;
51052;PMS5003;37093;37.716;-122.060;2022-11-23T02:46:47;20;16;
51052;PMS5003;37093;37.716;-122.060;2022-11-23T02:49:15;20;17;
51052;PMS5003;37093;37.716;-122.060;2022-11-23T02:51:44;23;17;
51052;PMS5003;37093;37.716;-122.060;2022-11-23T02:54:12;20;16;
51052;PMS5003;37093;37.716;-122.060;2022-11-23T02:56:41;17;16;
51052;PMS5003;37093;37.716;-122.060;2022-11-23T02:59:09;21;16;
51052;PMS5003;37093;37.716;-122.060;2022-11-23T03:01:38;19;17;
51052;PMS5003;37093;37.716;-122.060;2022-11-23T03:04:06;16;16;
51052;PMS5003;37093;37.716;-122.060;2022-11-23T03:06:35;16;15;
51052;PMS5003;37093;37.716;-122.060;2022-11-23T03:09:03;17;17;
51052;PMS5003;37093;37.716;-122.060;2022-11-23T03:11:32;20;14;
51052;PMS5003;37093;37.716;-122.060;2022-11-23T03:14:00;17;15;
51052;PMS5003;37093;37.716;-122.060;2022-11-23T03:16:29;15;13;
51052;PMS5003;37093;37.716;-122.060;2022-11-23T03:18:57;20;15;
51052;PMS5003;37093;37.716;-122.060;2022-11-23T03:21:25;26;14;
51052;PMS5003;37093;37.716;-122.060;2022-11-23T03:23:54;19;15;
51052;PMS5003;37093;37.716;-122.060;2022-11-23T03:26:23;15;14;
51052;PMS5003;37093;37.716;-122.060;2022-11-23T03:28:51;20;18;
51052;PMS5003;37093;37.716;-122.060;2022-11-23T03:31:20;18;17;
51052;PMS5003;37093;37.716;-122.060;2022-11-23T03:33:48;21;16;
51052;PMS5003;37093;37.716;-122.060;2022-11-23T03:36:16;18;13;
51052;PMS5003;37093;37.716;-122.060;2022-11-23T03:38:45;16;16;
51052;PMS5003;37093;37.716;-122.060;2022-11-23T03:41:13;19;17;
51052;PMS5003;37093;37.716;-122.060;2022-11-23T03:43:42;16;15;
51052;PMS5003;37093;37.716;-122.060;2022-11-23T03:46:10;17;15;
51052;PMS5003;37093;37.716;-122.060;2022-11-23T03:48:38;17;14;
51052;PMS5003;37093;37.716;-122.060;2022-11-23T03:51:07;18;15;
51052;PMS5003;37093;37.716;-122.060;2022-11-23T03:53:35;18;14;
51052;PMS5003;37093;37.716;-122.060;2022-11-23T03:56:04;20;16;
51052;PMS5003;37093;37.716;-122.060;2022-11-23T03:58:33;17;14;
51052;PMS5003;37093;37.716;-122.060;2022-11-23T04:01:01;19;16;
51052;PMS5003;37093;37.716;-122.060;2022-11-23T04:03:29;22;15;
51052;PMS5003;37093;37.716;-122.060;2022-11-23T04:05:57;15;13;
51052;PMS5003;37093;37.716;-122.060;2022-11-23T04:08:25;19;15;
51052;PMS5003;37093;37.716;-122.060;2022-11-23T04:10:55;13;13;
51052;PMS5003;37093;37.716;-122.060;2022-11-23T04:13:24;18;14;
51052;PMS5003;37093;37.716;-122.060;2022-11-23T04:15:54;15;14;
51052;PMS5003;37093;37.716;-122.060;2022-11-23T04:18:22;16;12;
51052;PMS5003;37093;37.716;-122.060;2022-11-23T04:20:51;15;13;
51052;PMS5003;37093;37.716;-122.060;2022-11-23T04:23:19;15;14;
51052;PMS5003;37093;37.716;-122.060;2022-11-23T04:25:46;21;15;
51052;PMS5003;37093;37.716;-122.060;2022-11-23T04:28:14;28;16;
51052;PMS5003;37093;37.716;-122.060;2022-11-23T04:30:43;16;13;
51052;PMS5003;37093;37.716;-122.060;2022-11-23T04:33:11;19;17;
51052;PMS5003;37093;37.716;-122.060;2022-11-23T04:35:39;18;13;
51052;PMS5003;37093;37.716;-122.060;2022-11-23T04:38:07;18;15;
51052;PMS5003;37093;37.716;-122.060;2022-11-23T04:40:36;17;16;
51052;PMS5003;37093;37.716;-122.060;2022-11-23T04:43:05;17;14;
51052;PMS5003;37093;37.716;-122.060;2022-11-23T04:45:36;16;16;
51052;PMS5003;37093;37.716;-122.060;2022-11-23T04:48:06;16;15;
51052;PMS5003;37093;37.716;-122.060;2022-11-23T04:50:35;17;15;
51052;PMS5003;37093;37.716;-122.060;2022-11-23T04:53:03;25;16;
51052;PMS5003;37093;37.716;-122.060;2022-11-23T04:55:31;20;17;
51052;PMS5003;37093;37.716;-122.060;2022-11-23T04:57:59;23;18;
51052;PMS5003;37093;37.716;-122.060;2022-11-23T05:00:28;17;14;
51052;PMS5003;37093;37.716;-122.060;2022-11-23T05:02:58;27;16;
51052;PMS5003;37093;37.716;-122.060;2022-11-23T05:05:27;22;19;
51052;PMS5003;37093;37.716;-122.060;2022-11-23T05:07:56;25;15;
51052;PMS5003;37093;37.716;-122.060;2022-11-23T05:10:24;29;15;
51052;PMS5003;37093;37.716;-122.060;2022-11-23T05:12:53;15;15;
51052;PMS5003;37093;37.716;-122.060;2022-11-23T05:15:22;20;18;
51052;PMS5003;37093;37.716;-122.060;2022-11-23T05:17:51;18;15;
51052;PMS5003;37093;37.716;-122.060;2022-11-23T05:20:20;31;18;
51052;PMS5003;37093;37.716;-122.060;2022-11-23T05:22:48;17;15;
51052;PMS5003;37093;37.716;-122.060;2022-11-23T05:25:16;24;17;
51052;PMS5003;37093;37.716;-122.060;2022-11-23T05:27:45;20;16;
51052;PMS5003;37093;37.716;-122.060;2022-11-23T05:30:13;19;15;
51052;PMS5003;37093;37.716;-122.060;2022-11-23T05:32:42;22;16;
51052;PMS5003;37093;37.716;-122.060;2022-11-23T05:35:11;18;13;
51052;PMS5003;37093;37.716;-122.060;2022-11-23T05:37:39;19;15;
51052;PMS5003;37093;37.716;-122.060;2022-11-23T05:40:08;26;17;
51052;PMS5003;37093;37.716;-122.060;2022-11-23T05:42:37;19;17;
51052;PMS5003;37093;37.716;-122.060;2022-11-23T05:45:05;20;18;
51052;PMS5003;37093;37.716;-122.060;2022-11-23T05:47:34;22;15;
51052;PMS5003;37093;37.716;-122.060;2022-11-23T05:50:03;16;13;
51052;PMS5003;37093;37.716;-122.060;2022-11-23T05:52:32;23;15;
51052;PMS5003;37093;37.716;-122.060;2022-11-23T05:54:59;16;15;
51052;PMS5003;37093;37.716;-122.060;2022-11-23T05:57:28;19;15;
51052;PMS5003;37093;37.716;-122.060;2022-11-23T05:59:56;17;15;
51052;PMS5003;37093;37.716;-122.060;2022-11-23T06:02:24;16;14;
51052;PMS5003;37093;37.716;-122.060;2022-11-23T06:04:53;17;12;
51052;PMS5003;37093;37.716;-122.060;2022-11-23T06:07:21;17;13;
51052;PMS5003;37093;37.716;-122.060;2022-11-23T06:09:49;18;16;
51052;PMS5003;37093;37.716;-122.060;2022-11-23T06:12:18;13;12;
51052;PMS5003;37093;37.716;-122.060;2022-11-23T06:14:46;13;12;
51052;PMS5003;37093;37.716;-122.060;2022-11-23T06:17:15;15;14;
51052;PMS5003;37093;37.716;-122.060;2022-11-23T06:19:44;17;15;
51052;PMS5003;37093;37.716;-122.060;2022-11-23T06:22:12;20;14;
51052;PMS5003;37093;37.716;-122.060;2022-11-23T06:24:41;21;14;
51052;PMS5003;37093;37.716;-122.060;2022-11-23T06:27:09;14;14;
51052;PMS5003;37093;37.716;-122.060;2022-11-23T06:29:38;14;12;
51052;PMS5003;37093;37.716;-122.060;2022-11-23T06:32:06;15;15;
51052;PMS5003;37093;37.716;-122.060;2022-11-23T06:34:34;18;13;
51052;PMS5003;37093;37.716;-122.060;2022-11-23T06:37:03;14;13;
51052;PMS5003;37093;37.716;-122.060;2022-11-23T06:39:31;16;14;
51052;PMS5003;37093;37.716;-122.060;2022-11-23T06:41:59;28;15;
51052;PMS5003;37093;37.716;-122.060;2022-11-23T06:44:28;14;14;
51052;PMS5003;37093;37.716;-122.060;2022-11-23T06:46:55;14;11;
51052;PMS5003;37093;37.716;-122.060;2022-11-23T06:49:24;21;13;
51052;PMS5003;37093;37.716;-122.060;2022-11-23T06:51:52;15;12;
51052;PMS5003;37093;37.716;-122.060;2022-11-23T06:54:20;14;12;
51052;PMS5003;37093;37.716;-122.060;2022-11-23T06:56:48;13;13;
51052;PMS5003;37093;37.716;-122.060;2022-11-23T06:59:16;18;13;
51052;PMS5003;37093;37.716;-122.060;2022-11-23T07:01:44;15;13;
51052;PMS5003;37093;37.716;-122.060;2022-11-23T07:04:13;13;10;
51052;PMS5003;37093;37.716;-122.060;2022-11-23T07:06:42;14;12;
51052;PMS5003;37093;37.716;-122.060;2022-11-23T07:09:10;21;13;
51052;PMS5003;37093;37.716;-122.060;2022-11-23T07:11:38;19;12;
51052;PMS5003;37093;37.716;-122.060;2022-11-23T07:14:07;13;13;
51052;PMS5003;37093;37.716;-122.060;2022-11-23T07:16:35;16;12;
51052;PMS5003;37093;37.716;-122.060;2022-11-23T07:19:04;13;12;
51052;PMS5003;37093;37.716;-122.060;2022-11-23T07:21:33;20;16;
51052;PMS5003;37093;37.716;-122.060;2022-11-23T07:24:02;12;10;
51052;PMS5003;37093;37.716;-122.060;2022-11-23T07:26:30;14;13;
51052;PMS5003;37093;37.716;-122.060;2022-11-23T07:28:58;16;13;
51052;PMS5003;37093;37.716;-122.060;2022-11-23T07:31:27;14;12;
51052;PMS5003;37093;37.716;-122.060;2022-11-23T07:33:55;15;14;
51052;PMS5003;37093;37.716;-122.060;2022-11-23T07:36:23;15;12;
51052;PMS5003;37093;37.716;-122.060;2022-11-23T07:38:52;15;13;
51052;PMS5003;37093;37.716;-122.060;2022-11-23T07:41:20;12;11;
51052;PMS5003;37093;37.716;-122.060;2022-11-23T07:43:49;12;10;
51052;PMS5003;37093;37.716;-122.060;2022-11-23T07:46:17;10;9;
51052;PMS5003;37093;37.716;-122.060;2022-11-23T07:48:46;14;11;
51052;PMS5003;37093;37.716;-122.060;2022-11-23T07:51:15;12;11;
51052;PMS5003;37093;37.716;-122.060;2022-11-23T07:53:43;17;12;
51052;PMS5003;37093;37.716;-122.060;2022-11-23T07:56:11;8;8;
51052;PMS5003;37093;37.716;-122.060;2022-11-23T07:58:39;12;10;
51052;PMS5003;37093;37.716;-122.060;2022-11-23T08:01:13;13;13;
51052;PMS5003;37093;37.716;-122.060;2022-11-23T08:03:43;13;12;
51052;PMS5003;37093;37.716;-122.060;2022-11-23T08:06:12;14;10;
51052;PMS5003;37093;37.716;-122.060;2022-11-23T08:08:42;11;10;
51052;PMS5003;37093;37.716;-122.060;2022-11-23T08:11:11;13;11;
51052;PMS5003;37093;37.716;-122.060;2022-11-23T08:13:39;20;9;
51052;PMS5003;37093;37.716;-122.060;2022-11-23T08:16:08;10;9;
51052;PMS5003;37093;37.716;-122.060;2022-11-23T08:18:36;12;12;
51052;PMS5003;37093;37.716;-122.060;2022-11-23T08:21:05;12;11;
51052;PMS5003;37093;37.716;-122.060;2022-11-23T08:23:34;15;11;
51052;PMS5003;37093;37.716;-122.060;2022-11-23T08:26:02;10;10;
51052;PMS5003;37093;37.716;-122.060;2022-11-23T08:28:31;16;12;
51052;PMS5003;37093;37.716;-122.060;2022-11-23T08:31:04;18;12;
51052;PMS5003;37093;37.716;-122.060;2022-11-23T08:33:33;13;12;
51052;PMS5003;37093;37.716;-122.060;2022-11-23T08:36:03;11;10;
51052;PMS5003;37093;37.716;-122.060;2022-11-23T08:38:32;14;11;
51052;PMS5003;37093;37.716;-122.060;2022-11-23T08:41:01;13;12;
51052;PMS5003;37093;37.716;-122.060;2022-11-23T08:43:30;11;10;
51052;PMS5003;37093;37.716;-122.060;2022-11-23T08:45:59;16;14;
51052;PMS5003;37093;37.716;-122.060;2022-11-23T08:48:28;11;9;
51052;PMS5003;37093;37.716;-122.060;2022-11-23T08:50:57;13;12;
51052;PMS5003;37093;37.716;-122.060;2022-11-23T08:53:26;17;14;
51052;PMS5003;37093;37.716;-122.060;2022-11-23T08:55:54;16;12;
51052;PMS5003;37093;37.716;-122.060;2022-11-23T08:58:26;14;13;
51052;PMS5003;37093;37.716;-122.060;2022-11-23T09:00:54;13;11;
51052;PMS5003;37093;37.716;-122.060;2022-11-23T09:03:23;13;11;
51052;PMS5003;37093;37.716;-122.060;2022-11-23T09:05:52;12;12;
51052;PMS5003;37093;37.716;-122.060;2022-11-23T09:08:20;16;14;
51052;PMS5003;37093;37.716;-122.060;2022-11-23T09:10:49;15;10;
51052;PMS5003;37093;37.716;-122.060;2022-11-23T09:13:17;15;12;
51052;PMS5003;37093;37.716;-122.060;2022-11-23T09:15:45;20;14;
51052;PMS5003;37093;37.716;-122.060;2022-11-23T09:18:14;15;13;
51052;PMS5003;37093;37.716;-122.060;2022-11-23T09:20:42;15;13;
51052;PMS5003;37093;37.716;-122.060;2022-11-23T09:23:10;14;12;
51052;PMS5003;37093;37.716;-122.060;2022-11-23T09:25:39;15;14;
51052;PMS5003;37093;37.716;-122.060;2022-11-23T09:28:07;12;12;
51052;PMS5003;37093;37.716;-122.060;2022-11-23T09:30:36;17;13;
51052;PMS5003;37093;37.716;-122.060;2022-11-23T09:33:04;15;14;
51052;PMS5003;37093;37.716;-122.060;2022-11-23T09:35:33;14;12;
51052;PMS5003;37093;37.716;-122.060;2022-11-23T09:38:02;22;14;
51052;PMS5003;37093;37.716;-122.060;2022-11-23T09:40:31;29;14;
51052;PMS5003;37093;37.716;-122.060;2022-11-23T09:43:07;15;12;
51052;PMS5003;37093;37.716;-122.060;2022-11-23T09:45:54;13;13;
51052;PMS5003;37093;37.716;-122.060;2022-11-23T09:48:32;14;10;
51052;PMS5003;37093;37.716;-122.060;2022-11-23T09:51:13;10;9;
51052;PMS5003;37093;37.716;-122.060;2022-11-23T09:53:44;17;14;
51052;PMS5003;37093;37.716;-122.060;2022-11-23T09:56:16;14;13;
51052;PMS5003;37093;37.716;-122.060;2022-11-23T09:58:53;12;11;
51052;PMS5003;37093;37.716;-122.060;2022-11-23T10:01:22;13;11;
51052;PMS5003;37093;37.716;-122.060;2022-11-23T10:03:51;15;12;
51052;PMS5003;37093;37.716;-122.060;2022-11-23T10:06:20;14;11;
51052;PMS5003;37093;37.716;-122.060;2022-11-23T10:08:54;23;13;
51052;PMS5003;37093;37.716;-122.060;2022-11-23T10:11:40;13;11;
51052;PMS5003;37093;37.716;-122.060;2022-11-23T10:14:29;11;11;
51052;PMS5003;37093;37.716;-122.060;2022-11-23T10:17:20;13;12;
51052;PMS5003;37093;37.716;-122.060;2022-11-23T10:20:01;15;12;
51052;PMS5003;37093;37.716;-122.060;2022-11-23T10:22:45;12;11;
51052;PMS5003;37093;37.716;-122.060;2022-11-23T10:25:21;13;13;
51052;PMS5003;37093;37.716;-122.060;2022-11-23T10:27:53;12;9;
51052;PMS5003;37093;37.716;-122.060;2022-11-23T10:30:24;16;13;
51052;PMS5003;37093;37.716;-122.060;2022-11-23T10:32:54;13;10;
51052;PMS5003;37093;37.716;-122.060;2022-11-23T10:35:27;13;11;
51052;PMS5003;37093;37.716;-122.060;2022-11-23T10:38:08;14;11;
51052;PMS5003;37093;37.716;-122.060;2022-11-23T10:40:38;15;11;
51052;PMS5003;37093;37.716;-122.060;2022-11-23T10:43:13;11;11;
51052;PMS5003;37093;37.716;-122.060;2022-11-23T10:45:44;17;13;
51052;PMS5003;37093;37.716;-122.060;2022-11-23T10:48:12;16;12;
51052;PMS5003;37093;37.716;-122.060;2022-11-23T10:51:13;14;11;
51052;PMS5003;37093;37.716;-122.060;2022-11-23T10:53:50;16;13;
51052;PMS5003;37093;37.716;-122.060;2022-11-23T10:56:21;12;10;
51052;PMS5003;37093;37.716;-122.060;2022-11-23T10:58:50;10;10;
51052;PMS5003;37093;37.716;-122.060;2022-11-23T11:01:18;19;15;
51052;PMS5003;37093;37.716;-122.060;2022-11-23T11:03:47;15;13;
51052;PMS5003;37093;37.716;-122.060;2022-11-23T11:06:20;13;12;
51052;PMS5003;37093;37.716;-122.060;2022-11-23T11:08:50;20;13;
51052;PMS5003;37093;37.716;-122.060;2022-11-23T11:11:21;13;13;
51052;PMS5003;37093;37.716;-122.060;2022-11-23T11:14:00;20;15;
51052;PMS5003;37093;37.716;-122.060;2022-11-23T11:16:31;16;14;
51052;PMS5003;37093;37.716;-122.060;2022-11-23T11:19:19;13;10;
51052;PMS5003;37093;37.716;-122.060;2022-11-23T11:21:51;13;11;
51052;PMS5003;37093;37.716;-122.060;2022-11-23T11:24:21;19;16;
51052;PMS5003;37093;37.716;-122.060;2022-11-23T11:26:57;22;12;
51052;PMS5003;37093;37.716;-122.060;2022-11-23T11:29:30;12;12;
51052;PMS5003;37093;37.716;-122.060;2022-11-23T11:32:01;22;12;
51052;PMS5003;37093;37.716;-122.060;2022-11-23T11:34:37;14;13;
51052;PMS5003;37093;37.716;-122.060;2022-11-23T11:37:12;13;11;
51052;PMS5003;37093;37.716;-122.060;2022-11-23T11:39:48;17;13;
51052;PMS5003;37093;37.716;-122.060;2022-11-23T11:42:21;13;12;
51052;PMS5003;37093;37.716;-122.060;2022-11-23T11:44:59;16;13;
51052;PMS5003;37093;37.716;-122.060;2022-11-23T11:47:31;15;13;
51052;PMS5003;37093;37.716;-122.060;2022-11-23T11:50:05;12;11;
51052;PMS5003;37093;37.716;-122.060;2022-11-23T11:52:44;14;12;
51052;PMS5003;37093;37.716;-122.060;2022-11-23T11:55:17;26;13;
51052;PMS5003;37093;37.716;-122.060;2022-11-23T11:57:54;18;16;
51052;PMS5003;37093;37.716;-122.060;2022-11-23T12:00:28;14;14;
51052;PMS5003;37093;37.716;-122.060;2022-11-23T12:03:11;15;12;
51052;PMS5003;37093;37.716;-122.060;2022-11-23T12:05:49;25;12;
51052;PMS5003;37093;37.716;-122.060;2022-11-23T12:08:20;14;13;
51052;PMS5003;37093;37.716;-122.060;2022-11-23T12:10:53;29;14;
51052;PMS5003;37093;37.716;-122.060;2022-11-23T12:13:23;26;17;
51052;PMS5003;37093;37.716;-122.060;2022-11-23T12:15:54;22;17;
51052;PMS5003;37093;37.716;-122.060;2022-11-23T12:18:38;22;17;
51052;PMS5003;37093;37.716;-122.060;2022-11-23T12:21:21;21;15;
51052;PMS5003;37093;37.716;-122.060;2022-11-23T12:24:04;21;16;
51052;PMS5003;37093;37.716;-122.060;2022-11-23T12:26:44;24;18;
51052;PMS5003;37093;37.716;-122.060;2022-11-23T12:29:28;26;20;
51052;PMS5003;37093;37.716;-122.060;2022-11-23T12:32:13;20;17;
51052;PMS5003;37093;37.716;-122.060;2022-11-23T12:35:02;22;18;
51052;PMS5003;37093;37.716;-122.060;2022-11-23T12:37:54;23;19;
51052;PMS5003;37093;37.716;-122.060;2022-11-23T12:40:30;24;18;
51052;PMS5003;37093;37.716;-122.060;2022-11-23T12:43:11;30;22;
51052;PMS5003;37093;37.716;-122.060;2022-11-23T12:45:51;19;17;
51052;PMS5003;37093;37.716;-122.060;2022-11-23T12:48:36;24;17;
51052;PMS5003;37093;37.716;-122.060;2022-11-23T12:51:19;18;17;
51052;PMS5003;37093;37.716;-122.060;2022-11-23T12:53:59;19;16;
51052;PMS5003;37093;37.716;-122.060;2022-11-23T12:56:47;22;18;
51052;PMS5003;37093;37.716;-122.060;2022-11-23T12:59:28;22;17;
51052;PMS5003;37093;37.716;-122.060;2022-11-23T13:02:07;25;17;
51052;PMS5003;37093;37.716;-122.060;2022-11-23T13:04:52;24;17;
51052;PMS5003;37093;37.716;-122.060;2022-11-23T13:07:47;24;18;
51052;PMS5003;37093;37.716;-122.060;2022-11-23T13:10:38;27;16;
51052;PMS5003;37093;37.716;-122.060;2022-11-23T13:13:23;20;18;
51052;PMS5003;37093;37.716;-122.060;2022-11-23T13:16:07;24;18;
51052;PMS5003;37093;37.716;-122.060;2022-11-23T13:18:52;20;17;
51052;PMS5003;37093;37.716;-122.060;2022-11-23T13:21:34;22;16;
51052;PMS5003;37093;37.716;-122.060;2022-11-23T13:24:21;25;17;
51052;PMS5003;37093;37.716;-122.060;2022-11-23T13:27:28;32;22;
51052;PMS5003;37093;37.716;-122.060;2022-11-23T13:30:09;21;18;
51052;PMS5003;37093;37.716;-122.060;2022-11-23T13:32:53;22;17;
51052;PMS5003;37093;37.716;-122.060;2022-11-23T13:35:57;23;18;
51052;PMS5003;37093;37.716;-122.060;2022-11-23T13:38:27;19;18;
51052;PMS5003;37093;37.716;-122.060;2022-11-23T13:42:10;36;21;
51052;PMS5003;37093;37.716;-122.060;2022-11-23T13:44:39;34;19;
51052;PMS5003;37093;37.716;-122.060;2022-11-23T13:47:17;26;19;
51052;PMS5003;37093;37.716;-122.060;2022-11-23T13:49:48;21;18;
51052;PMS5003;37093;37.716;-122.060;2022-11-23T13:52:25;29;21;
51052;PMS5003;37093;37.716;-122.060;2022-11-23T13:54:57;37;23;
51052;PMS5003;37093;37.716;-122.060;2022-11-23T13:57:28;25;19;
51052;PMS5003;37093;37.716;-122.060;2022-11-23T14:00:47;27;16;
51052;PMS5003;37093;37.716;-122.060;2022-11-23T14:03:50;26;18;
51052;PMS5003;37093;37.716;-122.060;2022-11-23T14:06:23;30;18;
51052;PMS5003;37093;37.716;-122.060;2022-11-23T14:08:58;24;20;
51052;PMS5003;37093;37.716;-122.060;2022-11-23T14:11:32;24;20;
51052;PMS5003;37093;37.716;-122.060;2022-11-23T14:14:08;28;22;
51052;PMS5003;37093;37.716;-122.060;2022-11-23T14:16:55;23;18;
51052;PMS5003;37093;37.716;-122.060;2022-11-23T14:19:56;23;18;
51052;PMS5003;37093;37.716;-122.060;2022-11-23T14:22:38;28;18;
51052;PMS5003;37093;37.716;-122.060;2022-11-23T14:25:24;35;21;
51052;PMS5003;37093;37.716;-122.060;2022-11-23T14:28:04;31;19;
51052;PMS5003;37093;37.716;-122.060;2022-11-23T14:30:48;21;19;
51052;PMS5003;37093;37.716;-122.060;2022-11-23T14:33:31;29;18;
51052;PMS5003;37093;37.716;-122.060;2022-11-23T14:36:10;17;17;
51052;PMS5003;37093;37.716;-122.060;2022-11-23T14:38:53;19;17;
51052;PMS5003;37093;37.716;-122.060;2022-11-23T14:41:35;22;19;
51052;PMS5003;37093;37.716;-122.060;2022-11-23T14:44:04;16;16;
51052;PMS5003;37093;37.716;-122.060;2022-11-23T14:46:38;22;20;
51052;PMS5003;37093;37.716;-122.060;2022-11-23T14:49:26;24;17;
51052;PMS5003;37093;37.716;-122.060;2022-11-23T14:51:55;25;18;
51052;PMS5003;37093;37.716;-122.060;2022-11-23T14:54:24;21;19;
51052;PMS5003;37093;37.716;-122.060;2022-11-23T14:56:55;24;19;
51052;PMS5003;37093;37.716;-122.060;2022-11-23T14:59:26;26;21;
51052;PMS5003;37093;37.716;-122.060;2022-11-23T15:01:59;35;20;
51052;PMS5003;37093;37.716;-122.060;2022-11-23T15:04:31;35;19;
51052;PMS5003;37093;37.716;-122.060;2022-11-23T15:07:04;26;19;
51052;PMS5003;37093;37.716;-122.060;2022-11-23T15:09:40;27;18;
51052;PMS5003;37093;37.716;-122.060;2022-11-23T15:12:20;19;15;
51052;PMS5003;37093;37.716;-122.060;2022-11-23T15:14:51;22;18;
51052;PMS5003;37093;37.716;-122.060;2022-11-23T15:17:21;30;17;
51052;PMS5003;37093;37.716;-122.060;2022-11-23T15:19:53;23;18;
51052;PMS5003;37093;37.716;-122.060;2022-11-23T15:22:23;21;17;
51052;PMS5003;37093;37.716;-122.060;2022-11-23T15:24:53;21;18;
51052;PMS5003;37093;37.716;-122.060;2022-11-23T15:27:30;24;15;
51052;PMS5003;37093;37.716;-122.060;2022-11-23T15:29:58;23;20;
51052;PMS5003;37093;37.716;-122.060;2022-11-23T15:32:28;19;18;
51052;PMS5003;37093;37.716;-122.060;2022-11-23T15:34:59;20;18;
51052;PMS5003;37093;37.716;-122.060;2022-11-23T15:37:30;22;19;
51052;PMS5003;37093;37.716;-122.060;2022-11-23T15:40:04;17;15;
51052;PMS5003;37093;37.716;-122.060;2022-11-23T15:42:38;22;19;
51052;PMS5003;37093;37.716;-122.060;2022-11-23T15:45:31;31;19;
51052;PMS5003;37093;37.716;-122.060;2022-11-23T15:48:01;31;19;
51052;PMS5003;37093;37.716;-122.060;2022-11-23T15:50:30;22;20;
51052;PMS5003;37093;37.716;-122.060;2022-11-23T15:52:59;19;19;
51052;PMS5003;37093;37.716;-122.060;2022-11-23T15:55:28;19;17;
51052;PMS5003;37093;37.716;-122.060;2022-11-23T15:57:56;19;16;
51052;PMS5003;37093;37.716;-122.060;2022-11-23T16:00:27;25;21;
51052;PMS5003;37093;37.716;-122.060;2022-11-23T16:03:19;25;19;
51052;PMS5003;37093;37.716;-122.060;2022-11-23T16:06:14;31;19;